Time;durP1;ratioP1;P1;durP2;ratioP2;P2;SDS_P1;SDS_P2;PMS_P1;PMS_P2;Temp;Humidity;BMP_temperature;BMP_pressure;BME280_temperature;BME280_humidity;BME280_pressure;Samples;Min_cycle;Max_cycle;Signal;HPM_P1;HPM_P2
2021/11/27 00:01:47;;;;;;;112.00;52.17;;;1.90;99.90;;;;;;2601901;54;20965;31
2021/11/27 00:04:32;;;;;;;119.00;50.70;;;1.90;99.90;;;;;;2602402;54;20030;31
2021/11/27 00:07:27;;;;;;;97.88;47.78;;;2.00;99.90;;;;;;2607097;47;20035;31
2021/11/27 00:10:07;;;;;;;97.70;46.80;;;1.90;99.90;;;;;;2602259;54;20030;31
2021/11/27 00:12:48;;;;;;;104.03;49.45;;;2.00;99.90;;;;;;2601841;54;20760;31
2021/11/27 00:15:53;;;;;;;89.97;45.10;;;2.00;99.90;;;;;;2601792;54;21205;31
2021/11/27 00:18:39;;;;;;;108.10;49.50;;;2.00;99.90;;;;;;2620813;47;19941;31
2021/11/27 00:21:26;;;;;;;;;;;2.00;99.90;;;;;;2602883;54;19940;31
2021/11/27 00:24:07;;;;;;;107.25;47.60;;;2.00;99.90;;;;;;2621008;47;19942;31
2021/11/27 00:26:49;;;;;;;106.72;48.05;;;2.00;99.90;;;;;;2602397;54;19935;31
2021/11/27 00:29:39;;;;;;;98.38;49.08;;;2.00;99.90;;;;;;2602494;54;20052;31
2021/11/27 00:32:15;;;;;;;109.88;50.10;;;2.00;99.90;;;;;;2602388;54;20068;31
2021/11/27 00:34:57;;;;;;;98.40;47.60;;;2.00;99.90;;;;;;2601756;54;20034;31
2021/11/27 00:37:36;;;;;;;99.22;47.55;;;2.00;99.90;;;;;;2601628;54;20034;31
2021/11/27 00:40:19;;;;;;;128.30;52.25;;;2.00;99.90;;;;;;2602601;54;20019;31
2021/11/27 00:51:51;;;;;;;136.75;49.42;;;2.00;99.90;;;;;;2621405;46;21675;31
2021/11/27 00:54:45;;;;;;;137.13;50.08;;;1.90;99.90;;;;;;2602985;54;20027;31
2021/11/27 00:57:25;;;;;;;106.18;46.80;;;1.90;99.90;;;;;;2603061;54;20997;31
2021/11/27 01:00:01;;;;;;;134.90;50.65;;;2.00;99.90;;;;;;2603204;54;20034;31
2021/11/27 01:02:40;;;;;;;138.55;47.67;;;1.90;99.90;;;;;;2603133;54;20829;31
2021/11/27 01:08:16;;;;;;;214.85;50.65;;;1.90;99.90;;;;;;2602394;54;20089;31
2021/11/27 01:13:58;;;;;;;184.80;48.70;;;1.90;99.90;;;;;;2603304;54;20247;31
2021/11/27 01:16:58;;;;;;;146.65;48.55;;;1.90;99.90;;;;;;2602907;54;20092;31
2021/11/27 01:22:21;;;;;;;109.40;43.25;;;1.90;99.90;;;;;;2602991;54;20033;31
2021/11/27 01:25:07;;;;;;;132.57;46.20;;;1.90;99.90;;;;;;2602993;54;20049;31
2021/11/27 01:28:02;;;;;;;206.60;53.95;;;1.90;99.90;;;;;;2606942;46;20022;31
2021/11/27 01:30:36;;;;;;;116.55;50.75;;;1.90;99.90;;;;;;2602815;54;20100;31
2021/11/27 01:33:14;;;;;;;145.50;52.63;;;1.90;99.90;;;;;;2621455;46;20083;31
2021/11/27 01:36:03;;;;;;;113.13;48.97;;;1.90;99.90;;;;;;2602745;54;20023;31
2021/11/27 01:38:59;;;;;;;111.50;49.60;;;1.90;99.90;;;;;;2701520;39;20393;31
2021/11/27 01:44:43;;;;;;;192.38;53.40;;;1.90;99.90;;;;;;2621795;46;21186;31
2021/11/27 01:47:23;;;;;;;144.10;52.00;;;1.90;99.90;;;;;;2621226;46;20465;31
2021/11/27 01:50:21;;;;;;;104.68;46.47;;;1.90;99.90;;;;;;2602584;54;20851;31
2021/11/27 01:53:17;;;;;;;121.50;50.53;;;1.90;99.90;;;;;;2621211;46;20887;31
2021/11/27 01:56:00;;;;;;;98.18;44.10;;;1.90;99.90;;;;;;2602922;54;20760;31
2021/11/27 01:58:35;;;;;;;113.20;49.53;;;2.00;99.90;;;;;;2603036;54;20030;31
2021/11/27 02:01:36;;;;;;;153.40;51.97;;;2.00;99.90;;;;;;2602970;54;20026;31
2021/11/27 02:04:30;;;;;;;105.85;46.08;;;2.10;99.90;;;;;;2602821;54;20027;31
2021/11/27 02:07:09;;;;;;;161.45;55.70;;;2.00;99.90;;;;;;2603136;54;20732;31
2021/11/27 02:09:49;;;;;;;110.20;48.30;;;2.00;99.90;;;;;;2602981;54;20931;31
2021/11/27 02:12:25;;;;;;;132.13;51.88;;;2.10;99.90;;;;;;2602889;54;20453;31
2021/11/27 02:15:10;;;;;;;136.13;55.15;;;2.00;99.90;;;;;;2607021;46;20110;31
2021/11/27 02:17:53;;;;;;;145.10;55.00;;;2.00;99.90;;;;;;2602839;54;20025;31
2021/11/27 02:20:30;;;;;;;94.38;43.17;;;2.00;99.90;;;;;;2602858;54;20886;31
2021/11/27 02:23:11;;;;;;;91.13;41.20;;;2.00;99.90;;;;;;2602149;54;20023;31
2021/11/27 02:26:02;;;;;;;131.23;52.95;;;2.00;99.90;;;;;;2621262;46;20851;31
2021/11/27 02:28:47;;;;;;;138.70;53.47;;;2.00;99.90;;;;;;2602843;54;21318;31
2021/11/27 02:31:25;;;;;;;114.65;46.83;;;2.00;99.90;;;;;;2772784;31;20679;31
2021/11/27 02:37:01;;;;;;;107.95;48.60;;;2.00;99.90;;;;;;2602719;54;20050;31
2021/11/27 02:39:44;;;;;;;121.85;53.05;;;2.00;99.90;;;;;;2602714;54;20598;31
2021/11/27 02:45:52;;;;;;;116.50;50.10;;;2.00;99.90;;;;;;2602821;54;20886;31
2021/11/27 02:48:35;;;;;;;108.80;49.00;;;2.00;99.90;;;;;;2602933;54;20992;31
2021/11/27 02:51:20;;;;;;;104.60;45.20;;;2.00;99.90;;;;;;2620702;46;20092;31
2021/11/27 03:03:08;;;;;;;117.00;48.20;;;2.00;99.90;;;;;;2791092;31;22464;31
2021/11/27 03:08:47;;;;;;;79.45;36.05;;;2.00;99.90;;;;;;2606293;46;20061;31
2021/11/27 03:14:36;;;;;;;93.75;43.60;;;2.00;99.90;;;;;;2602583;54;20034;31
2021/11/27 03:17:27;;;;;;;73.63;35.22;;;2.00;99.90;;;;;;2602588;54;20868;31
2021/11/27 03:22:46;;;;;;;93.60;46.40;;;2.10;99.90;;;;;;2602723;54;20022;31
2021/11/27 03:25:25;;;;;;;97.00;44.40;;;2.10;99.90;;;;;;2602585;54;20784;31
2021/11/27 03:30:55;;;;;;;105.40;47.50;;;2.10;99.90;;;;;;2602627;54;20042;31
2021/11/27 03:34:15;;;;;;;;;;;;;;;;;;;;;
2021/11/27 03:37:13;;;;;;;90.80;42.50;;;2.20;99.90;;;;;;2602428;54;20036;31
2021/11/27 03:45:35;;;;;;;94.70;42.08;;;2.10;99.90;;;;;;2602629;54;20898;31
2021/11/27 03:48:13;;;;;;;87.95;42.40;;;2.10;99.90;;;;;;2620842;47;20026;31
2021/11/27 03:51:28;;;;;;;75.55;37.75;;;2.10;99.90;;;;;;2602479;54;20026;31
2021/11/27 03:57:29;;;;;;;91.28;42.88;;;2.20;99.90;;;;;;2602520;54;20819;31
2021/11/27 04:00:13;;;;;;;105.47;47.22;;;2.20;99.90;;;;;;2602500;54;20944;31
2021/11/27 04:03:16;;;;;;;120.70;47.58;;;2.20;99.90;;;;;;2606038;47;20934;31
2021/11/27 04:06:10;;;;;;;93.00;43.03;;;2.20;99.90;;;;;;2601873;54;20218;31
2021/11/27 04:09:07;;;;;;;134.27;49.80;;;2.10;99.90;;;;;;2602363;54;20027;31
2021/11/27 04:14:56;;;;;;;112.40;48.13;;;2.00;99.90;;;;;;2621577;46;20893;31
2021/11/27 04:17:46;;;;;;;106.87;45.37;;;2.10;99.90;;;;;;2603161;54;20768;31
2021/11/27 04:20:52;;;;;;;110.10;47.05;;;2.00;99.90;;;;;;2603165;54;20384;31
2021/11/27 04:29:36;;;;;;;125.90;47.08;;;1.90;99.90;;;;;;2701914;39;22287;31
2021/11/27 04:32:23;;;;;;;86.10;40.20;;;2.00;99.90;;;;;;2603246;54;20085;31
2021/11/27 04:38:50;;;;;;;148.18;73.53;;;1.90;99.90;;;;;;2603411;54;20030;31
2021/11/27 04:44:09;;;;;;;107.80;52.33;;;1.90;99.90;;;;;;2602806;54;20023;31
2021/11/27 04:47:26;;;;;;;106.80;46.63;;;1.90;99.90;;;;;;2603054;54;20872;31
2021/11/27 04:53:27;;;;;;;104.20;52.43;;;1.90;99.90;;;;;;2603170;54;20034;31
2021/11/27 04:56:26;;;;;;;154.98;82.03;;;1.90;99.90;;;;;;2603073;54;20120;31
2021/11/27 04:59:07;;;;;;;116.70;56.75;;;1.80;99.90;;;;;;2603029;54;20025;31
2021/11/27 05:07:32;;;;;;;94.68;45.90;;;1.80;99.90;;;;;;2603202;54;20100;31
2021/11/27 05:10:25;;;;;;;111.45;52.05;;;1.90;99.90;;;;;;2603153;54;20030;31
2021/11/27 05:13:39;;;;;;;104.47;47.63;;;1.80;99.90;;;;;;2602955;54;20046;31
2021/11/27 05:16:49;;;;;;;97.20;43.40;;;1.90;99.90;;;;;;2603325;54;20033;31
2021/11/27 05:19:39;;;;;;;94.30;45.30;;;1.90;99.90;;;;;;2603116;54;20104;31
2021/11/27 05:22:38;;;;;;;106.53;46.55;;;1.80;99.90;;;;;;2602738;54;20924;31
2021/11/27 05:25:15;;;;;;;;;;;1.80;99.90;;;;;;2603433;54;20732;31
2021/11/27 05:29:21;;;;;;;90.63;45.13;;;1.80;99.90;;;;;;2603343;54;20764;31
2021/11/27 05:32:38;;;;;;;97.45;52.00;;;1.80;99.90;;;;;;2603193;54;20029;31
2021/11/27 05:35:30;;;;;;;100.00;45.97;;;1.80;99.90;;;;;;2603390;54;20023;31
2021/11/27 05:38:21;;;;;;;92.00;45.08;;;1.80;99.90;;;;;;2602269;54;20030;31
2021/11/27 05:40:58;;;;;;;79.25;41.25;;;1.80;99.90;;;;;;2603003;54;20034;31
2021/11/27 05:43:38;;;;;;;89.18;42.88;;;1.80;99.90;;;;;;2603101;54;20534;31
2021/11/27 05:49:14;;;;;;;81.90;41.85;;;1.80;99.90;;;;;;2602949;54;20037;31
2021/11/27 05:55:16;;;;;;;63.80;37.60;;;1.80;99.90;;;;;;2621335;46;20243;31
2021/11/27 05:57:53;;;;;;;85.07;43.60;;;1.90;99.90;;;;;;2773058;31;22391;31
2021/11/27 06:00:45;;;;;;;79.40;43.70;;;1.90;99.90;;;;;;2602886;54;21405;31
2021/11/27 06:03:23;;;;;;;70.70;41.15;;;1.90;99.90;;;;;;2602652;54;20078;31
2021/11/27 06:15:56;;;;;;;;;;;;;;;;;;;;;
2021/11/27 06:18:49;;;;;;;62.97;33.78;;;2.00;99.90;;;;;;2621503;46;20033;31
2021/11/27 06:30:59;;;;;;;68.00;37.25;;;2.00;99.90;;;;;;2603065;54;20034;31
2021/11/27 06:33:41;;;;;;;69.00;37.30;;;1.90;99.90;;;;;;2602852;54;20030;31
2021/11/27 06:36:16;;;;;;;67.23;38.50;;;2.00;99.90;;;;;;2602462;54;20796;31
2021/11/27 06:38:55;;;;;;;56.10;30.70;;;2.10;99.90;;;;;;2602943;54;20876;31
2021/11/27 06:41:31;;;;;;;74.60;40.75;;;1.90;99.90;;;;;;2612337;46;20073;31
2021/11/27 06:44:30;;;;;;;71.93;39.95;;;2.00;99.90;;;;;;2606462;46;20038;31
2021/11/27 06:47:11;;;;;;;57.13;33.08;;;1.90;99.90;;;;;;2602855;54;20030;31
2021/11/27 06:49:47;;;;;;;59.08;33.30;;;1.90;99.90;;;;;;2602932;54;20857;31
2021/11/27 06:52:24;;;;;;;73.97;39.08;;;1.90;99.90;;;;;;2621232;46;20023;31
2021/11/27 06:55:02;;;;;;;61.47;34.40;;;1.90;99.90;;;;;;2620869;46;20042;31
2021/11/27 06:57:38;;;;;;;79.53;42.35;;;1.80;99.90;;;;;;2602916;54;20046;31
2021/11/27 07:00:20;;;;;;;77.50;42.90;;;1.90;99.90;;;;;;2602749;54;20752;31
2021/11/27 07:03:21;;;;;;;69.07;37.47;;;1.90;99.90;;;;;;2602756;54;20241;31
2021/11/27 07:09:08;;;;;;;78.68;43.10;;;1.90;99.90;;;;;;2602789;54;20888;31
2021/11/27 07:12:14;;;;;;;67.82;38.38;;;1.90;99.90;;;;;;2602668;54;20074;31
2021/11/27 07:14:58;;;;;;;83.47;47.15;;;1.90;99.90;;;;;;2602880;54;20838;31
2021/11/27 07:17:35;;;;;;;73.85;43.88;;;1.90;99.90;;;;;;2602523;54;20875;31
2021/11/27 07:20:18;;;;;;;69.20;40.65;;;2.20;99.90;;;;;;2601782;54;20085;31
2021/11/27 07:22:57;;;;;;;65.57;40.15;;;2.60;99.90;;;;;;2602062;54;20876;31
2021/11/27 07:25:35;;;;;;;66.72;42.65;;;3.10;99.90;;;;;;2609500;46;20768;31
2021/11/27 07:28:42;;;;;;;57.10;36.50;;;3.50;99.90;;;;;;2602463;54;20747;31
2021/11/27 07:31:23;;;;;;;72.00;42.75;;;4.00;99.90;;;;;;2602597;54;21062;31
2021/11/27 07:33:59;;;;;;;59.40;36.03;;;4.50;99.90;;;;;;2602645;54;20057;31
2021/11/27 07:36:37;;;;;;;57.50;34.35;;;5.00;99.90;;;;;;2602634;54;20046;31
2021/11/27 07:39:14;;;;;;;86.30;53.25;;;5.30;99.90;;;;;;2602924;54;20956;31
2021/11/27 07:41:54;;;;;;;66.68;42.33;;;5.80;99.90;;;;;;2602852;54;20763;31
2021/11/27 07:44:49;;;;;;;64.72;41.00;;;6.10;99.90;;;;;;2602584;54;20046;31
2021/11/27 07:47:43;;;;;;;54.58;36.15;;;6.40;99.90;;;;;;2602815;54;20048;31
2021/11/27 07:51:00;;;;;;;63.35;39.45;;;6.60;99.90;;;;;;2603262;54;20871;31
2021/11/27 07:53:48;;;;;;;66.80;39.35;;;6.80;99.90;;;;;;2603592;54;20909;31
2021/11/27 07:56:28;;;;;;;67.40;41.80;;;7.00;99.90;;;;;;2603688;54;20097;31
2021/11/27 07:59:05;;;;;;;56.40;35.42;;;7.10;99.90;;;;;;2603575;54;20022;31
2021/11/27 08:01:46;;;;;;;51.78;33.92;;;7.40;99.90;;;;;;2622106;46;20061;31
2021/11/27 08:04:25;;;;;;;55.50;34.88;;;7.70;99.90;;;;;;2603586;54;20029;31
2021/11/27 08:07:01;;;;;;;51.78;34.42;;;7.80;99.90;;;;;;2603882;54;20031;31
2021/11/27 08:09:41;;;;;;;55.55;36.65;;;7.80;99.90;;;;;;2622278;46;20829;31
2021/11/27 08:12:19;;;;;;;52.88;35.35;;;7.90;99.90;;;;;;2602961;54;20123;31
2021/11/27 08:14:56;;;;;;;59.53;36.67;;;8.10;99.90;;;;;;2701237;39;20375;31
2021/11/27 08:17:35;;;;;;;61.28;38.78;;;8.30;99.90;;;;;;2602705;54;20034;31
2021/11/27 08:20:14;;;;;;;58.42;37.63;;;8.50;99.90;;;;;;2603525;54;20135;31
2021/11/27 08:25:28;;;;;;;49.70;31.23;;;8.80;99.90;;;;;;2622121;46;20026;31
2021/11/27 08:28:10;;;;;;;45.83;31.17;;;8.80;99.90;;;;;;2603688;54;20489;31
2021/11/27 08:30:44;;;;;;;51.40;32.17;;;8.80;99.90;;;;;;2622006;46;20101;31
2021/11/27 08:33:27;;;;;;;65.13;40.07;;;8.90;99.90;;;;;;2603691;54;20106;31
2021/11/27 08:36:05;;;;;;;73.32;47.42;;;9.10;99.90;;;;;;2603558;54;20927;31
2021/11/27 08:38:41;;;;;;;32.28;21.08;;;9.20;99.90;;;;;;2622041;46;20027;31
2021/11/27 08:41:22;;;;;;;28.52;19.50;;;9.20;99.90;;;;;;2602875;54;20806;31
2021/11/27 08:43:58;;;;;;;24.75;17.67;;;9.20;99.90;;;;;;2603717;54;20030;31
2021/11/27 08:47:00;;;;;;;26.98;18.33;;;9.30;99.90;;;;;;2622009;46;20027;31
2021/11/27 08:49:37;;;;;;;24.20;17.70;;;9.40;99.90;;;;;;2603379;54;20830;31
2021/11/27 08:52:13;;;;;;;22.90;16.92;;;9.40;99.90;;;;;;2603718;54;20037;31
2021/11/27 08:54:52;;;;;;;28.30;19.13;;;9.40;99.90;;;;;;2603724;54;20778;31
2021/11/27 08:57:36;;;;;;;29.05;16.80;;;9.50;99.90;;;;;;2622157;46;20033;31
2021/11/27 09:00:16;;;;;;;26.75;18.15;;;9.50;99.90;;;;;;2602579;54;20027;31
2021/11/27 09:02:58;;;;;;;23.70;16.15;;;9.50;99.90;;;;;;2602933;54;20852;31
2021/11/27 09:05:40;;;;;;;26.63;17.43;;;9.40;99.90;;;;;;2615836;46;20034;31
2021/11/27 09:08:15;;;;;;;26.65;18.27;;;9.60;99.90;;;;;;2603711;54;20809;31
2021/11/27 09:11:03;;;;;;;25.10;17.43;;;9.70;99.90;;;;;;2603474;54;20039;31
2021/11/27 09:13:40;;;;;;;25.83;18.10;;;9.80;99.90;;;;;;2603790;54;20276;31
2021/11/27 09:16:20;;;;;;;26.50;18.20;;;9.80;99.90;;;;;;2603486;54;20089;31
2021/11/27 09:19:06;;;;;;;24.35;16.75;;;9.80;99.90;;;;;;2603820;54;20034;31
2021/11/27 09:21:42;;;;;;;26.67;17.85;;;9.70;99.90;;;;;;2701740;39;21537;31
2021/11/27 09:24:18;;;;;;;27.90;18.65;;;9.60;99.90;;;;;;2603247;54;20026;31
2021/11/27 09:26:55;;;;;;;28.08;17.58;;;9.60;99.90;;;;;;2603580;54;20057;31
2021/11/27 09:29:29;;;;;;;27.52;18.35;;;9.60;99.90;;;;;;2603416;54;20023;31
2021/11/27 09:32:09;;;;;;;28.17;20.30;;;9.50;99.90;;;;;;2621943;46;20030;31
2021/11/27 09:34:47;;;;;;;27.80;18.33;;;9.50;99.90;;;;;;2603207;54;20131;31
2021/11/27 09:37:26;;;;;;;25.45;17.00;;;9.40;99.90;;;;;;2603326;54;20089;31
2021/11/27 09:40:03;;;;;;;27.45;17.55;;;9.30;99.90;;;;;;2603355;54;20085;31
2021/11/27 09:45:13;;;;;;;32.05;19.30;;;9.30;99.90;;;;;;2603116;54;20055;31
2021/11/27 09:47:50;;;;;;;30.58;19.83;;;9.20;99.90;;;;;;2773446;31;22638;31
2021/11/27 09:50:25;;;;;;;36.17;22.50;;;9.20;99.90;;;;;;2603373;54;20030;31
2021/11/27 09:53:01;;;;;;;34.95;21.45;;;9.20;99.90;;;;;;2603542;54;20247;31
2021/11/27 09:55:36;;;;;;;48.35;27.73;;;9.20;99.90;;;;;;2603017;54;20030;31
2021/11/27 09:58:13;;;;;;;38.00;23.60;;;9.00;99.90;;;;;;2603291;54;20946;31
2021/11/27 10:00:48;;;;;;;31.90;22.73;;;8.80;99.90;;;;;;2621805;46;20030;31
2021/11/27 10:03:26;;;;;;;38.97;25.38;;;8.60;99.90;;;;;;2621842;46;20054;31
2021/11/27 10:06:02;;;;;;;40.45;25.15;;;8.30;99.90;;;;;;2612015;46;20037;31
2021/11/27 10:08:40;;;;;;;42.38;26.35;;;8.20;99.90;;;;;;2603357;54;20033;31
2021/11/27 10:11:15;;;;;;;;;;;8.10;99.90;;;;;;2603150;54;20900;31
2021/11/27 10:13:53;;;;;;;42.28;25.30;;;7.90;99.90;;;;;;2603266;54;20745;31
2021/11/27 10:16:32;;;;;;;52.15;34.50;;;7.80;99.90;;;;;;2603214;54;20932;31
2021/11/27 10:21:47;;;;;;;44.45;28.15;;;7.60;99.90;;;;;;2603142;54;20951;31
2021/11/27 10:24:23;;;;;;;47.15;31.33;;;7.50;99.90;;;;;;2602359;54;20089;31
2021/11/27 10:27:01;;;;;;;47.05;28.10;;;7.30;99.90;;;;;;2602398;54;20030;31
2021/11/27 10:29:39;;;;;;;38.08;23.55;;;7.10;99.90;;;;;;2621034;46;20526;31
2021/11/27 10:32:17;;;;;;;41.45;25.80;;;6.80;99.90;;;;;;2602475;54;20040;31
2021/11/27 10:34:54;;;;;;;36.25;23.70;;;6.70;99.90;;;;;;2602660;54;20093;31
2021/11/27 10:37:36;;;;;;;51.28;32.17;;;6.60;99.90;;;;;;2603249;54;20049;31
2021/11/27 10:40:14;;;;;;;64.28;33.42;;;6.50;99.90;;;;;;2603120;54;20046;31
2021/11/27 10:42:55;;;;;;;37.50;24.23;;;6.40;99.90;;;;;;2602843;54;20057;31
2021/11/27 10:51:15;;;;;;;48.58;29.30;;;6.30;99.90;;;;;;2603128;54;20026;31
2021/11/27 10:53:59;;;;;;;;;;;6.20;99.90;;;;;;2603237;54;20032;31
2021/11/27 10:56:44;;;;;;;71.28;33.63;;;6.10;99.90;;;;;;2603272;54;19946;31
2021/11/27 10:59:21;;;;;;;51.75;27.63;;;6.00;99.90;;;;;;2602748;54;20046;31
2021/11/27 11:02:32;;;;;;;38.00;22.48;;;5.90;99.90;;;;;;2602662;54;20145;31
2021/11/27 11:08:06;;;;;;;42.72;22.70;;;5.80;99.90;;;;;;2602680;54;20523;31
2021/11/27 11:10:51;;;;;;;38.63;25.05;;;5.70;99.90;;;;;;2602585;54;20027;31
2021/11/27 11:13:54;;;;;;;43.72;23.80;;;5.60;99.90;;;;;;2602668;54;20881;31
2021/11/27 11:17:06;;;;;;;33.33;21.38;;;5.50;99.90;;;;;;2701395;39;20303;31
2021/11/27 11:19:48;;;;;;;33.50;20.27;;;5.40;99.90;;;;;;2602266;54;20908;31
2021/11/27 11:22:31;;;;;;;42.15;23.38;;;5.30;99.90;;;;;;2602763;54;20808;31
2021/11/27 11:25:15;;;;;;;37.03;20.98;;;5.10;99.90;;;;;;2603097;54;20030;31
2021/11/27 11:31:06;;;;;;;50.63;26.55;;;5.00;99.90;;;;;;2621662;46;20008;31
2021/11/27 11:33:56;;;;;;;47.90;24.30;;;5.00;99.90;;;;;;2603107;54;20030;31
2021/11/27 11:39:40;;;;;;;34.50;18.55;;;4.70;99.90;;;;;;2621106;47;19934;31
2021/11/27 11:42:26;;;;;;;39.50;23.13;;;4.70;99.90;;;;;;2602634;54;20778;31
2021/11/27 11:45:13;;;;;;;28.65;16.80;;;4.70;99.90;;;;;;2602801;54;20713;31
2021/11/27 11:47:56;;;;;;;46.80;27.77;;;4.70;99.90;;;;;;2602822;54;20872;31
2021/11/27 11:50:56;;;;;;;;;;;;;;;;;;;;;
2021/11/27 11:53:48;;;;;;;50.60;26.63;;;4.70;99.90;;;;;;2602884;54;20046;31
2021/11/27 11:56:41;;;;;;;33.65;21.00;;;4.60;99.90;;;;;;2621338;47;20023;31
2021/11/27 11:59:55;;;;;;;36.85;20.45;;;4.70;99.90;;;;;;2602650;54;20027;31
2021/11/27 12:02:56;;;;;;;37.78;21.60;;;4.70;99.90;;;;;;2602426;54;20000;31
2021/11/27 12:05:36;;;;;;;33.40;20.25;;;4.70;99.90;;;;;;2602667;54;20029;31
2021/11/27 12:11:13;;;;;;;31.77;17.35;;;4.70;99.90;;;;;;2621001;47;20080;31
2021/11/27 12:14:06;;;;;;;31.48;17.77;;;4.70;99.90;;;;;;2621361;47;20140;31
2021/11/27 12:17:14;;;;;;;31.20;19.05;;;4.70;99.90;;;;;;2621162;47;20108;31
2021/11/27 12:20:16;;;;;;;31.23;19.35;;;4.60;99.90;;;;;;2602523;54;20863;31
2021/11/27 12:31:48;;;;;;;42.70;25.35;;;4.50;99.90;;;;;;2602497;54;20032;31
2021/11/27 12:34:40;;;;;;;31.00;18.35;;;4.40;99.90;;;;;;2602863;54;20867;31
2021/11/27 12:37:37;;;;;;;25.27;15.93;;;4.50;99.90;;;;;;2603336;54;20488;31
2021/11/27 12:43:34;;;;;;;30.95;17.40;;;4.40;99.90;;;;;;2603384;54;20123;31
2021/11/27 12:46:31;;;;;;;30.87;18.37;;;4.40;99.90;;;;;;2720229;39;20392;31
2021/11/27 12:49:10;;;;;;;34.75;20.95;;;4.40;99.90;;;;;;2603207;54;20026;31
2021/11/27 12:51:54;;;;;;;32.85;19.10;;;4.40;99.90;;;;;;2621814;46;20029;31
2021/11/27 12:57:31;;;;;;;54.03;32.90;;;4.40;99.90;;;;;;2603091;54;20751;31
2021/11/27 13:00:16;;;;;;;45.97;27.90;;;4.30;99.90;;;;;;2621502;46;20258;31
2021/11/27 13:03:09;;;;;;;85.35;49.38;;;4.30;99.90;;;;;;2621749;46;20848;31
2021/11/27 13:05:57;;;;;;;56.60;25.00;;;4.30;99.90;;;;;;2621400;46;20683;31
2021/11/27 13:08:39;;;;;;;57.85;27.45;;;4.20;99.90;;;;;;2603131;54;20310;31
2021/11/27 13:11:13;;;;;;;53.33;30.98;;;4.30;99.90;;;;;;2603117;54;20962;31
2021/11/27 13:13:55;;;;;;;63.75;34.22;;;4.30;99.90;;;;;;2621718;46;20027;31
2021/11/27 13:16:43;;;;;;;48.80;25.40;;;4.30;99.90;;;;;;2621144;46;20029;31
2021/11/27 13:19:17;;;;;;;;;;;4.20;99.90;;;;;;2626502;46;20059;31
2021/11/27 13:22:10;;;;;;;39.05;20.17;;;4.20;99.90;;;;;;2603781;54;20722;31
2021/11/27 13:25:00;;;;;;;31.92;18.83;;;4.20;99.90;;;;;;2603172;54;20856;31
2021/11/27 13:27:40;;;;;;;62.53;26.97;;;4.10;99.90;;;;;;2603631;54;21396;31
2021/11/27 13:30:16;;;;;;;52.90;27.40;;;4.10;99.90;;;;;;2602094;54;19981;31
2021/11/27 13:33:08;;;;;;;40.73;22.70;;;4.10;99.90;;;;;;2602874;54;20907;31
2021/11/27 13:35:45;;;;;;;37.55;20.88;;;4.00;99.90;;;;;;2602857;54;20314;31
2021/11/27 13:38:29;;;;;;;29.73;16.52;;;4.00;99.90;;;;;;2603145;54;20113;31
2021/11/27 13:41:06;;;;;;;25.25;14.40;;;4.00;99.90;;;;;;2603297;54;20744;31
2021/11/27 13:43:53;;;;;;;34.00;16.38;;;3.90;99.90;;;;;;2602541;54;20026;31
2021/11/27 13:46:30;;;;;;;36.40;17.30;;;3.90;99.90;;;;;;2602306;54;20044;31
2021/11/27 13:49:12;;;;;;;25.83;16.90;;;3.90;99.90;;;;;;2618606;46;19989;31
2021/11/27 13:51:48;;;;;;;34.15;18.45;;;4.00;99.90;;;;;;2603074;54;20039;31
2021/11/27 13:54:23;;;;;;;;;;;3.90;99.90;;;;;;2603152;54;20107;31
2021/11/27 13:57:03;;;;;;;31.08;16.05;;;3.90;99.90;;;;;;2621311;46;19934;31
2021/11/27 13:59:43;;;;;;;38.33;19.85;;;3.70;99.90;;;;;;2621412;46;20164;31
2021/11/27 14:02:18;;;;;;;42.50;25.70;;;3.70;99.90;;;;;;2603064;54;20086;31
2021/11/27 14:05:04;;;;;;;31.65;18.45;;;3.70;99.90;;;;;;2603002;54;20257;31
2021/11/27 14:07:42;;;;;;;48.40;23.47;;;3.60;99.90;;;;;;2602947;54;20779;31
2021/11/27 14:10:20;;;;;;;61.25;29.08;;;3.60;99.90;;;;;;2603104;54;20786;31
2021/11/27 14:12:55;;;;;;;95.05;47.92;;;3.60;99.90;;;;;;2602915;54;20111;31
2021/11/27 14:15:46;;;;;;;52.45;26.90;;;3.60;99.90;;;;;;2621459;46;20026;31
2021/11/27 14:18:23;;;;;;;50.15;25.48;;;3.60;99.90;;;;;;2602979;54;20038;31
2021/11/27 14:21:16;;;;;;;39.83;23.70;;;3.50;99.90;;;;;;2602910;54;20026;31
2021/11/27 14:23:54;;;;;;;45.22;23.98;;;3.50;99.90;;;;;;2602796;54;20111;31
2021/11/27 14:26:47;;;;;;;55.63;27.42;;;3.50;99.90;;;;;;2602186;54;20848;31
2021/11/27 14:29:29;;;;;;;41.67;23.08;;;3.50;99.90;;;;;;2602830;54;20030;31
2021/11/27 14:32:03;;;;;;;45.50;22.90;;;3.40;99.90;;;;;;2602769;54;20030;31
2021/11/27 14:34:41;;;;;;;42.20;24.43;;;3.50;99.90;;;;;;2602846;54;20030;31
2021/11/27 14:37:23;;;;;;;56.35;27.25;;;3.40;99.90;;;;;;2602388;54;20242;31
2021/11/27 14:40:03;;;;;;;46.72;24.42;;;3.40;99.90;;;;;;2607610;46;20499;31
2021/11/27 14:42:41;;;;;;;39.47;22.13;;;3.30;99.90;;;;;;2602727;54;20884;31
2021/11/27 14:45:17;;;;;;;37.38;20.98;;;3.40;99.90;;;;;;2604804;46;20246;31
2021/11/27 14:47:55;;;;;;;34.20;22.00;;;3.30;99.90;;;;;;2701495;39;21449;31
2021/11/27 14:50:30;;;;;;;35.03;21.75;;;3.30;99.90;;;;;;2621353;46;20928;31
2021/11/27 14:53:11;;;;;;;42.88;23.55;;;3.20;99.90;;;;;;2602896;54;20038;31
2021/11/27 14:55:53;;;;;;;59.17;27.02;;;3.30;99.90;;;;;;2602642;54;20053;31
2021/11/27 14:58:27;;;;;;;48.00;26.58;;;3.20;99.90;;;;;;2620978;46;20026;31
2021/11/27 15:01:11;;;;;;;46.40;29.20;;;3.20;99.90;;;;;;2602889;54;20908;31
2021/11/27 15:03:52;;;;;;;39.90;24.30;;;3.20;99.90;;;;;;2602827;54;20033;31
2021/11/27 15:06:33;;;;;;;53.28;29.80;;;3.20;99.90;;;;;;2719739;39;20476;31
2021/11/27 15:09:08;;;;;;;33.80;22.50;;;3.30;99.90;;;;;;2602731;54;20030;31
2021/11/27 15:11:55;;;;;;;38.60;22.93;;;3.20;99.90;;;;;;2602603;54;20791;31
2021/11/27 15:14:32;;;;;;;37.13;22.10;;;3.30;99.90;;;;;;2602068;54;20053;31
2021/11/27 15:17:11;;;;;;;42.75;24.23;;;3.20;99.90;;;;;;2602848;54;20065;31
2021/11/27 15:19:50;;;;;;;39.38;24.05;;;3.20;99.90;;;;;;2602093;54;20080;31
2021/11/27 15:22:28;;;;;;;42.10;26.50;;;3.20;99.90;;;;;;2602013;54;20104;31
2021/11/27 15:25:08;;;;;;;47.40;27.88;;;3.20;99.90;;;;;;2602830;54;20076;31
2021/11/27 15:27:50;;;;;;;48.17;27.90;;;3.10;99.90;;;;;;2719875;39;20583;31
2021/11/27 15:30:26;;;;;;;47.13;28.50;;;3.10;99.90;;;;;;2620729;46;20148;31
2021/11/27 15:33:02;;;;;;;44.47;27.88;;;3.10;99.90;;;;;;2601876;54;20839;31
2021/11/27 15:35:37;;;;;;;56.17;31.90;;;3.10;99.90;;;;;;2601982;54;21150;31
2021/11/27 15:38:19;;;;;;;50.03;30.30;;;3.00;99.90;;;;;;2602551;54;20690;31
2021/11/27 15:40:51;;;;;;;70.70;37.35;;;2.90;99.90;;;;;;2602866;54;22375;31
2021/11/27 15:43:30;;;;;;;54.22;30.17;;;2.90;99.90;;;;;;2620981;47;20477;31
2021/11/27 15:46:12;;;;;;;74.10;39.80;;;2.90;99.90;;;;;;2602542;54;20594;31
2021/11/27 15:48:50;;;;;;;62.28;34.50;;;2.90;99.90;;;;;;2621247;47;20069;31
2021/11/27 15:51:25;;;;;;;69.20;35.05;;;2.90;99.90;;;;;;2620934;47;20027;31
2021/11/27 15:54:02;;;;;;;62.65;36.17;;;2.80;99.90;;;;;;2602579;54;20131;31
2021/11/27 15:56:41;;;;;;;81.23;44.00;;;2.80;99.90;;;;;;2621107;46;20025;31
2021/11/27 15:59:20;;;;;;;70.35;40.17;;;2.80;99.90;;;;;;2700713;39;20384;31
2021/11/27 16:01:58;;;;;;;65.80;38.97;;;2.80;99.90;;;;;;2602814;54;20052;31
2021/11/27 16:04:34;;;;;;;72.33;39.33;;;2.80;99.90;;;;;;2602458;54;20061;31
2021/11/27 16:07:12;;;;;;;73.95;40.03;;;2.80;99.90;;;;;;2700337;39;20539;31
2021/11/27 16:09:51;;;;;;;69.70;39.35;;;2.80;99.90;;;;;;2603096;54;20038;31
2021/11/27 16:12:31;;;;;;;69.03;40.22;;;2.70;99.90;;;;;;2701140;39;21090;31
2021/11/27 16:15:14;;;;;;;63.53;38.15;;;2.70;99.90;;;;;;2602206;54;20982;31
2021/11/27 16:17:56;;;;;;;65.25;38.40;;;2.70;99.90;;;;;;2602197;54;20030;31
2021/11/27 16:20:32;;;;;;;77.55;41.42;;;2.60;99.90;;;;;;2602641;54;20022;31
2021/11/27 16:23:08;;;;;;;66.38;41.30;;;2.60;99.90;;;;;;2603415;54;20027;31
2021/11/27 16:25:47;;;;;;;69.77;40.10;;;2.60;99.90;;;;;;2621647;46;20101;31
2021/11/27 16:28:21;;;;;;;65.53;37.47;;;2.60;99.90;;;;;;2603389;54;20515;31
2021/11/27 16:30:59;;;;;;;68.40;38.75;;;2.60;99.90;;;;;;2603406;54;20824;31
2021/11/27 16:33:35;;;;;;;63.85;37.50;;;2.60;99.90;;;;;;2621387;46;20018;31
2021/11/27 16:36:13;;;;;;;62.88;36.47;;;2.60;99.90;;;;;;2622088;46;20027;31
2021/11/27 16:38:51;;;;;;;57.92;34.70;;;2.60;99.90;;;;;;2603170;54;20148;31
2021/11/27 16:41:30;;;;;;;60.88;35.75;;;2.60;99.90;;;;;;2603165;54;20035;31
2021/11/27 16:44:06;;;;;;;59.40;37.10;;;2.60;99.90;;;;;;2603042;54;20441;31
2021/11/27 16:46:46;;;;;;;68.15;37.28;;;2.60;99.90;;;;;;2603240;54;20112;31